createdAt,value
2023-05-03T00:00:15.780Z,92
2023-05-03T00:00:45.557Z,92
2023-05-03T00:01:17.076Z,92
2023-05-03T00:01:48.181Z,92
2023-05-03T00:02:36.382Z,92
2023-05-03T00:02:51.135Z,92
2023-05-03T00:03:21.971Z,92
2023-05-03T00:03:52.054Z,92
2023-05-03T00:04:22.834Z,93
2023-05-03T00:04:55.238Z,93
2023-05-03T00:05:25.229Z,93
2023-05-03T00:05:57.289Z,93
2023-05-03T00:06:26.674Z,93
2023-05-03T00:06:58.614Z,93
2023-05-03T00:07:29.645Z,93
2023-05-03T00:08:01.002Z,93
2023-05-03T00:08:43.660Z,93
2023-05-03T00:09:11.799Z,93
2023-05-03T00:09:32.978Z,93
2023-05-03T00:10:05.021Z,93
2023-05-03T00:10:42.916Z,93
2023-05-03T00:11:10.062Z,93
2023-05-03T00:11:56.685Z,93
2023-05-03T00:12:10.112Z,93
2023-05-03T00:12:41.709Z,93
2023-05-03T00:13:13.943Z,93
2023-05-03T00:13:43.875Z,93
2023-05-03T00:14:17.269Z,93
2023-05-03T00:14:44.550Z,93
2023-05-03T00:15:19.785Z,93
2023-05-03T00:16:03.095Z,93
2023-05-03T00:16:25.640Z,94
2023-05-03T00:16:47.464Z,94
2023-05-03T00:17:18.836Z,94
2023-05-03T00:17:50.192Z,94
2023-05-03T00:18:22.580Z,94
2023-05-03T00:18:59.213Z,94
2023-05-03T00:19:31.416Z,94
2023-05-03T00:19:53.353Z,94
2023-05-03T00:20:41.538Z,94
2023-05-03T00:20:56.380Z,94
2023-05-03T00:22:31.397Z,94
2023-05-03T00:22:59.641Z,94
2023-05-03T00:23:36.675Z,94
2023-05-03T00:24:02.873Z,94
2023-05-03T00:24:32.938Z,94
2023-05-03T00:25:34.761Z,94
2023-05-03T00:26:05.304Z,94
2023-05-03T00:26:36.357Z,94
2023-05-03T00:27:07.428Z,94
2023-05-03T00:27:38.203Z,94
2023-05-03T00:28:09.773Z,94
2023-05-03T00:28:40.287Z,94
2023-05-03T00:29:11.874Z,94
2023-05-03T00:29:44.516Z,94
2023-05-03T00:30:15.154Z,94
2023-05-03T00:31:21.859Z,94
2023-05-03T00:31:48.161Z,94
2023-05-03T00:32:16.941Z,94
2023-05-03T00:32:48.903Z,94
2023-05-03T00:33:19.763Z,94
2023-05-03T00:33:52.270Z,94
2023-05-03T00:34:23.236Z,94
2023-05-03T00:35:11.330Z,94
2023-05-03T00:35:25.748Z,94
2023-05-03T00:35:55.387Z,94
2023-05-03T00:36:26.756Z,94
2023-05-03T00:36:57.344Z,94
2023-05-03T00:37:29.611Z,94
2023-05-03T00:37:59.294Z,94
2023-05-03T00:38:31.376Z,94
2023-05-03T00:39:02.600Z,94
2023-05-03T00:39:33.347Z,94
2023-05-03T00:40:04.410Z,95
2023-05-03T00:40:35.425Z,95
2023-05-03T00:41:05.852Z,95
2023-05-03T00:41:36.234Z,95
2023-05-03T00:42:07.179Z,95
2023-05-03T00:42:38.464Z,95
2023-05-03T00:43:09.386Z,95
2023-05-03T00:43:41.760Z,95
2023-05-03T00:44:12.682Z,95
2023-05-03T00:44:43.084Z,95
2023-05-03T00:45:15.036Z,95
2023-05-03T00:45:45.042Z,95
2023-05-03T00:46:17.448Z,95
2023-05-03T00:46:46.092Z,95
2023-05-03T00:47:16.760Z,95
2023-05-03T00:47:48.063Z,95
2023-05-03T00:48:19.694Z,95
2023-05-03T00:48:50.742Z,95
2023-05-03T00:49:22.045Z,95
2023-05-03T00:49:53.131Z,95
2023-05-03T00:50:24.400Z,95
2023-05-03T00:50:54.465Z,95
2023-05-03T00:51:26.172Z,95
2023-05-03T00:51:55.795Z,95
2023-05-03T00:52:25.968Z,95
2023-05-03T00:52:57.778Z,95
2023-05-03T00:53:29.048Z,95
2023-05-03T00:54:00.418Z,95
2023-05-03T00:54:32.479Z,95
2023-05-03T00:55:03.185Z,95
2023-05-03T00:55:34.062Z,95
2023-05-03T00:56:04.800Z,95
2023-05-03T00:56:44.432Z,95
2023-05-03T00:57:08.859Z,95
2023-05-03T00:57:37.091Z,95
2023-05-03T00:58:38.918Z,95
2023-05-03T00:59:10.084Z,95
2023-05-03T00:59:41.085Z,95
2023-05-03T01:00:44.490Z,95
2023-05-03T01:01:15.380Z,95
2023-05-03T01:01:45.626Z,95
2023-05-03T01:02:16.845Z,95
2023-05-03T01:03:07.084Z,95
2023-05-03T01:03:38.069Z,95
2023-05-03T01:04:08.345Z,95
2023-05-03T01:04:42.355Z,95
2023-05-03T01:05:10.752Z,95
2023-05-03T01:05:41.693Z,95
2023-05-03T01:06:29.426Z,95
2023-05-03T01:06:51.907Z,95
2023-05-03T01:07:14.546Z,95
2023-05-03T01:07:44.389Z,95
2023-05-03T01:08:16.992Z,95
2023-05-03T01:08:47.655Z,95
2023-05-03T01:09:18.209Z,95
2023-05-03T01:09:48.816Z,95
2023-05-03T01:10:20.621Z,95
2023-05-03T01:10:51.822Z,95
2023-05-03T01:11:38.974Z,95
2023-05-03T01:11:53.417Z,95
2023-05-03T01:12:56.071Z,95
2023-05-03T01:13:25.899Z,95
2023-05-03T01:13:58.325Z,94
2023-05-03T01:14:28.949Z,94
2023-05-03T01:15:00.015Z,94
2023-05-03T01:15:31.398Z,94
2023-05-03T01:16:02.155Z,94
2023-05-03T01:16:32.889Z,94
2023-05-03T01:17:34.904Z,94
2023-05-03T01:18:05.776Z,94
2023-05-03T01:18:36.557Z,95
2023-05-03T01:19:07.107Z,95
2023-05-03T01:19:37.711Z,94
2023-05-03T01:20:12.343Z,94
2023-05-03T01:21:11.576Z,94
2023-05-03T01:21:42.253Z,94
2023-05-03T01:22:13.560Z,95
2023-05-03T01:22:44.877Z,95
2023-05-03T01:23:16.556Z,95
2023-05-03T01:23:47.534Z,95
2023-05-03T01:24:34.630Z,95
2023-05-03T01:24:48.102Z,95
2023-05-03T01:25:18.722Z,95
2023-05-03T01:25:50.030Z,95
2023-05-03T01:26:20.788Z,95
2023-05-03T01:26:52.788Z,95
2023-05-03T01:27:23.559Z,95
2023-05-03T01:27:59.724Z,95
2023-05-03T01:28:25.568Z,95
2023-05-03T01:29:13.325Z,95
2023-05-03T01:29:27.236Z,95
2023-05-03T01:29:57.356Z,95
2023-05-03T01:30:29.361Z,95
2023-05-03T01:31:00.012Z,95
2023-05-03T01:31:31.362Z,95
2023-05-03T01:32:02.547Z,95
2023-05-03T01:32:32.971Z,95
2023-05-03T01:33:22.321Z,95
2023-05-03T01:33:36.241Z,95
2023-05-03T01:34:08.026Z,95
2023-05-03T01:34:37.790Z,95
2023-05-03T01:35:08.289Z,95
2023-05-03T01:35:39.862Z,96
2023-05-03T01:36:11.279Z,96
2023-05-03T01:36:42.240Z,96
2023-05-03T01:37:12.136Z,96
2023-05-03T01:37:42.585Z,96
2023-05-03T01:38:13.864Z,96
2023-05-03T01:38:46.453Z,96
2023-05-03T01:39:33.640Z,96
2023-05-03T01:39:47.873Z,96
2023-05-03T01:40:18.915Z,96
2023-05-03T01:40:49.627Z,96
2023-05-03T01:41:20.727Z,96
2023-05-03T01:41:50.638Z,96
2023-05-03T01:42:21.169Z,96
2023-05-03T01:42:52.391Z,96
2023-05-03T01:43:23.847Z,96
2023-05-03T01:43:54.928Z,97
2023-05-03T01:44:26.060Z,97
2023-05-03T01:44:56.598Z,97
2023-05-03T01:45:27.976Z,97
2023-05-03T01:45:58.259Z,97
2023-05-03T01:46:29.702Z,97
2023-05-03T01:47:00.614Z,97
2023-05-03T01:47:31.353Z,97
2023-05-03T01:48:02.738Z,96
2023-05-03T01:48:33.628Z,96
2023-05-03T01:49:36.199Z,96
2023-05-03T01:50:07.700Z,96
2023-05-03T01:50:37.446Z,96
2023-05-03T01:51:08.742Z,96
2023-05-03T01:51:39.880Z,96
2023-05-03T01:52:10.582Z,96
2023-05-03T01:52:41.239Z,96
2023-05-03T01:53:12.668Z,95
2023-05-03T01:53:44.306Z,95
2023-05-03T01:54:46.216Z,95
2023-05-03T01:55:16.940Z,95
2023-05-03T01:55:47.483Z,95
2023-05-03T01:56:18.347Z,95
2023-05-03T01:56:49.842Z,95
2023-05-03T01:57:20.837Z,95
2023-05-03T01:57:51.413Z,95
2023-05-03T01:58:22.478Z,95
2023-05-03T01:58:53.159Z,95
2023-05-03T01:59:25.374Z,95
2023-05-03T01:59:56.287Z,95
2023-05-03T02:00:27.529Z,95
2023-05-03T02:00:57.619Z,95
2023-05-03T02:01:28.697Z,95
2023-05-03T02:02:17.089Z,95
2023-05-03T02:02:30.858Z,95
2023-05-03T02:03:01.492Z,95
2023-05-03T02:03:32.400Z,95
2023-05-03T02:04:03.491Z,95
2023-05-03T02:04:35.082Z,95
2023-05-03T02:05:06.946Z,95
2023-05-03T02:05:54.222Z,95
2023-05-03T02:06:07.569Z,95
2023-05-03T02:06:39.366Z,95
2023-05-03T02:07:10.724Z,95
2023-05-03T02:07:40.699Z,95
2023-05-03T02:08:12.144Z,95
2023-05-03T02:08:42.520Z,95
2023-05-03T02:09:14.471Z,95
2023-05-03T02:09:45.290Z,95
2023-05-03T02:10:17.072Z,95
2023-05-03T02:10:47.654Z,95
2023-05-03T02:11:17.940Z,95
2023-05-03T02:11:48.439Z,95
2023-05-03T02:12:20.717Z,95
2023-05-03T02:12:50.696Z,95
2023-05-03T02:13:21.483Z,95
2023-05-03T02:14:10.224Z,95
2023-05-03T02:14:23.199Z,95
2023-05-03T02:14:54.740Z,95
2023-05-03T02:15:26.456Z,95
2023-05-03T02:15:56.756Z,95
2023-05-03T02:16:28.377Z,95
2023-05-03T02:16:58.959Z,95
2023-05-03T02:17:29.862Z,96
2023-05-03T02:18:00.658Z,95
2023-05-03T02:18:31.495Z,96
2023-05-03T02:19:02.648Z,96
2023-05-03T02:19:33.209Z,96
2023-05-03T02:20:05.924Z,96
2023-05-03T02:20:36.306Z,96
2023-05-03T02:21:07.088Z,96
2023-05-03T02:21:38.070Z,96
2023-05-03T02:22:08.878Z,96
2023-05-03T02:22:39.753Z,96
2023-05-03T02:23:10.677Z,96
2023-05-03T02:23:49.406Z,96
2023-05-03T02:24:12.531Z,96
2023-05-03T02:24:44.956Z,96
2023-05-03T02:25:14.749Z,96
2023-05-03T02:25:46.080Z,96
2023-05-03T02:26:16.846Z,95
2023-05-03T02:26:48.175Z,95
2023-05-03T02:27:18.564Z,95
2023-05-03T02:27:49.768Z,95
2023-05-03T02:28:20.852Z,95
2023-05-03T02:28:51.311Z,95
2023-05-03T02:29:23.628Z,95
2023-05-03T02:29:53.635Z,96
2023-05-03T02:30:26.323Z,96
2023-05-03T02:30:56.227Z,96
2023-05-03T02:31:27.067Z,96
2023-05-03T02:31:58.252Z,96
2023-05-03T02:32:29.042Z,96
2023-05-03T02:33:00.185Z,96
2023-05-03T02:33:31.233Z,96
2023-05-03T02:34:01.583Z,96
2023-05-03T02:34:32.484Z,96
2023-05-03T02:35:04.042Z,96
2023-05-03T02:35:35.532Z,96
2023-05-03T02:36:22.940Z,96
2023-05-03T02:36:37.667Z,96
2023-05-03T02:37:08.149Z,96
2023-05-03T02:37:38.699Z,96
2023-05-03T02:38:10.105Z,96
2023-05-03T02:38:41.170Z,96
2023-05-03T02:39:11.893Z,96
2023-05-03T02:39:42.808Z,96
2023-05-03T02:40:13.538Z,96
2023-05-03T02:40:44.850Z,96
2023-05-03T02:41:16.565Z,96
2023-05-03T02:41:47.115Z,96
2023-05-03T02:42:18.365Z,96
2023-05-03T02:42:49.337Z,96
2023-05-03T02:43:19.814Z,97
2023-05-03T02:43:50.769Z,97
2023-05-03T02:44:21.682Z,97
2023-05-03T02:45:10.747Z,96
2023-05-03T02:45:23.585Z,97
2023-05-03T02:45:55.396Z,97
2023-05-03T02:46:26.150Z,97
2023-05-03T02:46:57.135Z,97
2023-05-03T02:47:27.949Z,97
2023-05-03T02:47:58.550Z,97
2023-05-03T02:48:30.035Z,96
2023-05-03T02:49:01.056Z,96
2023-05-03T02:49:31.547Z,97
2023-05-03T02:50:08.125Z,97
2023-05-03T02:50:33.665Z,97
2023-05-03T02:51:05.736Z,97
2023-05-03T02:51:36.294Z,97
2023-05-03T02:52:23.605Z,96
2023-05-03T02:52:39.046Z,96
2023-05-03T02:53:09.181Z,96
2023-05-03T02:53:39.644Z,96
2023-05-03T02:54:11.056Z,96
2023-05-03T02:54:41.660Z,96
2023-05-03T02:55:13.130Z,96
2023-05-03T02:55:45.762Z,96
2023-05-03T02:56:15.399Z,96
2023-05-03T02:56:46.454Z,96
2023-05-03T02:57:17.454Z,96
2023-05-03T02:57:48.036Z,96
2023-05-03T02:58:50.284Z,96
2023-05-03T02:59:20.877Z,96
2023-05-03T02:59:51.679Z,96
2023-05-03T03:00:23.275Z,96
2023-05-03T03:00:53.704Z,96
2023-05-03T03:01:25.442Z,96
2023-05-03T03:01:56.502Z,96
2023-05-03T03:02:27.217Z,96
2023-05-03T03:02:58.048Z,96
2023-05-03T03:03:28.983Z,96
2023-05-03T03:04:00.501Z,96
2023-05-03T03:04:30.835Z,96
2023-05-03T03:05:02.138Z,96
2023-05-03T03:05:32.458Z,96
2023-05-03T03:06:34.416Z,96
2023-05-03T03:07:06.142Z,96
2023-05-03T03:08:07.853Z,96
2023-05-03T03:08:38.960Z,96
2023-05-03T03:09:09.927Z,96
2023-05-03T03:09:41.143Z,96
2023-05-03T03:10:12.332Z,96
2023-05-03T03:10:42.741Z,96
2023-05-03T03:11:13.850Z,96
2023-05-03T03:11:45.132Z,96
2023-05-03T03:12:16.487Z,96
2023-05-03T03:12:47.518Z,96
2023-05-03T03:13:18.184Z,96
2023-05-03T03:13:48.918Z,96
2023-05-03T03:14:21.138Z,96
2023-05-03T03:14:50.824Z,96
2023-05-03T03:15:21.960Z,96
2023-05-03T03:15:52.481Z,96
2023-05-03T03:16:23.684Z,97
2023-05-03T03:17:12.052Z,97
2023-05-03T03:17:26.557Z,97
2023-05-03T03:17:57.240Z,97
2023-05-03T03:18:27.529Z,97
2023-05-03T03:18:59.062Z,97
2023-05-03T03:19:30.739Z,97
2023-05-03T03:20:01.570Z,97
2023-05-03T03:20:32.771Z,97
2023-05-03T03:21:02.758Z,97
2023-05-03T03:21:33.852Z,97
2023-05-03T03:22:04.566Z,97
2023-05-03T03:22:36.500Z,97
2023-05-03T03:23:07.388Z,97
2023-05-03T03:23:38.017Z,97
2023-05-03T03:24:09.173Z,97
2023-05-03T03:24:39.656Z,97
2023-05-03T03:25:11.033Z,97
2023-05-03T03:25:41.987Z,97
2023-05-03T03:26:12.913Z,97
2023-05-03T03:26:43.997Z,97
2023-05-03T03:27:15.287Z,97
2023-05-03T03:27:46.871Z,97
2023-05-03T03:28:17.219Z,97
2023-05-03T03:28:48.580Z,97
2023-05-03T03:29:18.978Z,97
2023-05-03T03:29:53.536Z,97
2023-05-03T03:30:21.992Z,97
2023-05-03T03:30:51.831Z,97
2023-05-03T03:31:22.940Z,97
2023-05-03T03:31:54.020Z,97
2023-05-03T03:32:24.869Z,97
2023-05-03T03:32:57.173Z,97
2023-05-03T03:33:27.100Z,97
2023-05-03T03:33:57.856Z,97
2023-05-03T03:34:28.986Z,97
2023-05-03T03:35:05.259Z,97
2023-05-03T03:35:34.698Z,97
2023-05-03T03:36:01.967Z,97
2023-05-03T03:36:32.516Z,97
2023-05-03T03:37:03.697Z,97
2023-05-03T03:37:34.945Z,97
2023-05-03T03:38:06.150Z,97
2023-05-03T03:38:37.683Z,97
2023-05-03T03:39:08.246Z,97
2023-05-03T03:39:39.140Z,97
2023-05-03T03:40:12.345Z,97
2023-05-03T03:41:11.815Z,97
2023-05-03T03:41:42.702Z,97
2023-05-03T03:42:14.470Z,97
2023-05-03T03:42:47.453Z,97
2023-05-03T03:43:17.779Z,97
2023-05-03T03:43:48.460Z,97
2023-05-03T03:44:18.670Z,97
2023-05-03T03:44:49.231Z,97
2023-05-03T03:45:21.733Z,97
2023-05-03T03:45:53.367Z,97
2023-05-03T03:46:23.694Z,97
2023-05-03T03:46:53.789Z,97
2023-05-03T03:47:25.810Z,97
2023-05-03T03:48:13.515Z,97
2023-05-03T03:48:27.811Z,97
2023-05-03T03:48:58.186Z,97
2023-05-03T03:49:29.420Z,97
2023-05-03T03:50:01.231Z,97
2023-05-03T03:50:32.009Z,97
2023-05-03T03:51:02.563Z,97
2023-05-03T03:51:33.172Z,97
2023-05-03T03:52:03.072Z,97
2023-05-03T03:52:35.017Z,97
2023-05-03T03:53:05.564Z,97
2023-05-03T03:53:37.243Z,97
2023-05-03T03:54:08.531Z,97
2023-05-03T03:54:39.152Z,97
2023-05-03T03:55:10.520Z,97
2023-05-03T03:55:41.702Z,97
2023-05-03T03:56:48.122Z,97
2023-05-03T03:56:59.971Z,97
2023-05-03T03:57:13.050Z,97
2023-05-03T03:57:44.331Z,97
2023-05-03T03:58:16.532Z,96
2023-05-03T03:58:47.687Z,96
2023-05-03T03:59:18.788Z,96
2023-05-03T03:59:50.655Z,96
2023-05-03T04:01:16.432Z,96
2023-05-03T04:01:21.511Z,96
2023-05-03T04:01:52.109Z,96
2023-05-03T04:02:28.483Z,96
2023-05-03T04:02:53.820Z,96
2023-05-03T04:03:26.454Z,96
2023-05-03T04:03:56.049Z,96
2023-05-03T04:04:27.111Z,96
2023-05-03T04:04:58.302Z,96
2023-05-03T04:05:48.733Z,96
2023-05-03T04:06:00.178Z,96
2023-05-03T04:06:31.860Z,96
2023-05-03T04:07:02.327Z,96
2023-05-03T04:07:33.128Z,97
2023-05-03T04:08:58.601Z,97
2023-05-03T04:09:07.294Z,97
2023-05-03T04:09:37.876Z,97
2023-05-03T04:10:09.454Z,97
2023-05-03T04:10:40.274Z,97
2023-05-03T04:11:11.011Z,97
2023-05-03T04:11:41.820Z,97
2023-05-03T04:12:12.048Z,97
2023-05-03T04:12:43.199Z,98
2023-05-03T04:13:14.023Z,98
2023-05-03T04:13:45.156Z,98
2023-05-03T04:14:17.135Z,98
2023-05-03T04:14:48.242Z,98
2023-05-03T04:15:19.642Z,98
2023-05-03T04:15:50.008Z,98
2023-05-03T04:16:20.502Z,98
2023-05-03T04:16:51.630Z,98
2023-05-03T04:17:22.854Z,98
2023-05-03T04:17:53.225Z,98
2023-05-03T04:18:24.890Z,98
2023-05-03T04:18:54.928Z,98
2023-05-03T04:19:26.124Z,98
2023-05-03T04:19:57.858Z,98
2023-05-03T04:20:28.939Z,98
2023-05-03T04:20:59.632Z,98
2023-05-03T04:21:29.838Z,98
2023-05-03T04:22:01.791Z,98
2023-05-03T04:22:32.289Z,98
2023-05-03T04:23:03.864Z,98
2023-05-03T04:23:53.224Z,98
2023-05-03T04:24:06.324Z,98
2023-05-03T04:24:49.397Z,98
2023-05-03T04:25:08.400Z,98
2023-05-03T04:25:38.120Z,98
2023-05-03T04:26:41.975Z,98
2023-05-03T04:27:14.264Z,98
2023-05-03T04:27:44.839Z,99
2023-05-03T04:28:15.384Z,99
2023-05-03T04:28:45.952Z,99
2023-05-03T04:29:15.775Z,99
2023-05-03T04:29:47.302Z,99
2023-05-03T04:30:18.840Z,99
2023-05-03T04:30:48.735Z,99
2023-05-03T04:31:20.648Z,99
2023-05-03T04:31:51.703Z,99
2023-05-03T04:32:22.621Z,99
2023-05-03T04:32:53.390Z,99
2023-05-03T04:33:23.650Z,99
2023-05-03T04:33:54.495Z,99
2023-05-03T04:34:26.954Z,99
2023-05-03T04:34:58.036Z,99
2023-05-03T04:35:29.457Z,99
2023-05-03T04:35:59.399Z,99
2023-05-03T04:36:32.384Z,99
2023-05-03T04:37:04.319Z,99
2023-05-03T04:37:32.696Z,99
2023-05-03T04:38:03.232Z,99
2023-05-03T04:38:34.145Z,98
2023-05-03T04:39:04.962Z,99
2023-05-03T04:39:34.953Z,99
2023-05-03T04:40:07.067Z,99
2023-05-03T04:40:37.349Z,98
2023-05-03T04:41:08.523Z,99
2023-05-03T04:41:39.517Z,99
2023-05-03T04:42:10.423Z,99
2023-05-03T04:42:41.377Z,99
2023-05-03T04:43:12.180Z,99
2023-05-03T04:43:43.506Z,99
2023-05-03T04:44:14.166Z,99
2023-05-03T04:44:45.137Z,99
2023-05-03T04:45:16.389Z,99
2023-05-03T04:45:47.336Z,99
2023-05-03T04:46:18.891Z,99
2023-05-03T04:46:50.903Z,99
2023-05-03T04:47:20.384Z,99
2023-05-03T04:47:51.603Z,99
2023-05-03T04:48:58.053Z,99
2023-05-03T04:49:41.545Z,99
2023-05-03T04:49:55.933Z,99
2023-05-03T04:50:43.616Z,99
2023-05-03T04:50:58.021Z,99
2023-05-03T04:51:28.610Z,99
2023-05-03T04:51:59.608Z,99
2023-05-03T04:52:30.051Z,99
2023-05-03T04:53:01.440Z,99
2023-05-03T04:53:33.393Z,99
2023-05-03T04:54:03.400Z,99
2023-05-03T04:54:34.039Z,99
2023-05-03T04:55:05.443Z,99
2023-05-03T04:55:36.225Z,99
2023-05-03T04:56:07.977Z,99
2023-05-03T04:56:38.925Z,99
2023-05-03T04:57:09.145Z,99
2023-05-03T04:57:40.578Z,99
2023-05-03T04:58:11.399Z,99
2023-05-03T04:58:42.343Z,99
2023-05-03T04:59:13.122Z,99
2023-05-03T05:00:02.755Z,99
2023-05-03T05:00:22.973Z,99
2023-05-03T05:00:46.189Z,99
2023-05-03T05:01:17.512Z,99
2023-05-03T05:01:48.274Z,99
2023-05-03T05:02:19.420Z,99
2023-05-03T05:02:50.230Z,99
2023-05-03T05:03:21.543Z,99
2023-05-03T05:03:52.469Z,99
2023-05-03T05:04:23.168Z,99
2023-05-03T05:04:54.079Z,99
2023-05-03T05:05:25.288Z,99
2023-05-03T05:06:27.906Z,99
2023-05-03T05:06:58.572Z,99
2023-05-03T05:07:29.089Z,99
2023-05-03T05:07:59.972Z,99
2023-05-03T05:08:31.536Z,99
2023-05-03T05:09:02.165Z,99
2023-05-03T05:09:33.150Z,99
2023-05-03T05:10:04.970Z,99
2023-05-03T05:10:36.151Z,99
2023-05-03T05:11:07.372Z,99
2023-05-03T05:11:37.718Z,99
2023-05-03T05:12:08.532Z,99
2023-05-03T05:12:39.797Z,99
2023-05-03T05:13:09.945Z,99
2023-05-03T05:13:41.347Z,99
2023-05-03T05:14:12.061Z,99
2023-05-03T05:14:43.311Z,99
2023-05-03T05:15:14.515Z,99
2023-05-03T05:15:45.639Z,99
2023-05-03T05:16:16.696Z,99
2023-05-03T05:16:48.091Z,99
2023-05-03T05:17:18.744Z,99
2023-05-03T05:17:49.809Z,99
2023-05-03T05:18:20.375Z,99
2023-05-03T05:18:51.791Z,99
2023-05-03T05:19:22.264Z,99
2023-05-03T05:19:53.720Z,99
2023-05-03T05:20:25.231Z,99
2023-05-03T05:20:55.305Z,99
2023-05-03T05:21:26.327Z,99
2023-05-03T05:21:57.925Z,99
2023-05-03T05:22:28.844Z,99
2023-05-03T05:23:01.948Z,99
2023-05-03T05:23:40.804Z,99
2023-05-03T05:24:35.506Z,99
2023-05-03T05:25:03.431Z,99
2023-05-03T05:25:34.095Z,99
2023-05-03T05:26:05.394Z,99
2023-05-03T05:26:36.124Z,99
2023-05-03T05:27:08.441Z,99
2023-05-03T05:27:39.012Z,99
2023-05-03T05:28:09.658Z,99
2023-05-03T05:28:40.534Z,99
2023-05-03T05:29:12.119Z,99
2023-05-03T05:29:42.278Z,99
2023-05-03T05:38:10.269Z,98
2023-05-03T05:38:29.253Z,98
2023-05-03T05:50:28.439Z,98
2023-05-03T05:51:07.327Z,98
2023-05-03T05:51:24.155Z,98
2023-05-03T05:52:14.877Z,98
2023-05-03T05:55:35.298Z,98
2023-05-03T05:57:12.421Z,98
2023-05-03T05:57:21.485Z,98
2023-05-03T05:57:38.562Z,98
2023-05-03T05:58:07.894Z,98
2023-05-03T05:58:39.261Z,98
2023-05-03T05:59:11.664Z,98
2023-05-03T05:59:41.793Z,97
2023-05-03T06:00:14.414Z,97
2023-05-03T06:01:02.731Z,97
2023-05-03T06:01:14.365Z,96
2023-05-03T06:02:24.117Z,96
2023-05-03T06:02:46.557Z,93
2023-05-03T06:03:29.871Z,93
2023-05-03T06:03:48.337Z,92
2023-05-03T06:04:19.933Z,91
2023-05-03T06:04:52.111Z,90
2023-05-03T06:05:24.955Z,89
2023-05-03T06:05:58.842Z,89
2023-05-03T06:06:40.753Z,89
2023-05-03T06:06:54.999Z,89
2023-05-03T06:07:25.696Z,87
2023-05-03T06:07:56.936Z,87
2023-05-03T06:08:29.770Z,85
2023-05-03T06:08:59.985Z,85
2023-05-03T06:09:31.335Z,83
2023-05-03T06:10:02.458Z,82
2023-05-03T06:10:32.798Z,83
2023-05-03T06:11:07.793Z,83
2023-05-03T06:11:35.401Z,82
2023-05-03T06:12:05.579Z,82
2023-05-03T06:12:35.706Z,82
2023-05-03T06:13:22.360Z,81
2023-05-03T06:13:39.164Z,80
2023-05-03T06:14:17.731Z,79
2023-05-03T06:15:02.777Z,79
2023-05-03T06:15:12.230Z,79
2023-05-03T06:15:42.402Z,79
2023-05-03T06:16:14.223Z,80
2023-05-03T06:16:44.167Z,81
2023-05-03T06:17:15.332Z,81
2023-05-03T06:17:45.873Z,81
2023-05-03T06:18:16.676Z,80
2023-05-03T06:18:48.139Z,81
2023-05-03T06:19:19.007Z,83
2023-05-03T06:19:50.148Z,80
2023-05-03T06:20:22.432Z,78
2023-05-03T06:20:52.683Z,76
2023-05-03T06:21:23.339Z,77
2023-05-03T06:21:54.652Z,76
2023-05-03T06:22:25.704Z,76
2023-05-03T06:22:55.568Z,78
2023-05-03T06:23:31.977Z,77
2023-05-03T06:23:57.510Z,76
2023-05-03T06:24:30.510Z,75
2023-05-03T06:25:00.563Z,74
2023-05-03T06:25:31.855Z,74
2023-05-03T06:26:02.959Z,73
2023-05-03T06:26:33.362Z,71
2023-05-03T06:27:03.858Z,70
2023-05-03T06:27:35.042Z,70
2023-05-03T06:28:05.787Z,72
2023-05-03T06:28:42.360Z,72
2023-05-03T06:29:08.669Z,71
2023-05-03T06:29:41.831Z,71
2023-05-03T06:30:10.914Z,72
2023-05-03T06:30:47.096Z,68
2023-05-03T06:31:13.781Z,70
2023-05-03T06:31:43.282Z,72
2023-05-03T06:32:29.417Z,71
2023-05-03T06:32:45.704Z,70
2023-05-03T06:33:16.293Z,69
2023-05-03T06:33:47.012Z,69
2023-05-03T06:34:19.497Z,68
2023-05-03T06:34:59.221Z,69
2023-05-03T06:35:21.464Z,67
2023-05-03T06:36:24.152Z,68
2023-05-03T06:37:03.748Z,68
2023-05-03T06:37:25.736Z,67
2023-05-03T06:37:55.893Z,70
2023-05-03T06:38:29.117Z,67
2023-05-03T06:38:56.623Z,66
2023-05-03T06:39:28.122Z,66
2023-05-03T06:39:58.768Z,66
2023-05-03T06:40:30.723Z,66
2023-05-03T06:41:01.732Z,64
2023-05-03T06:41:33.534Z,64
2023-05-03T06:42:03.348Z,66
2023-05-03T06:42:34.179Z,65
2023-05-03T06:43:05.343Z,64
2023-05-03T06:43:35.975Z,63
2023-05-03T06:49:18.747Z,65
2023-05-03T06:49:50.552Z,63
2023-05-03T06:50:47.467Z,64
2023-05-03T06:51:23.127Z,65
2023-05-03T06:51:55.243Z,65
2023-05-03T06:52:23.088Z,68
2023-05-03T06:52:53.776Z,62
2023-05-03T06:53:25.086Z,64
2023-05-03T06:53:56.466Z,64
2023-05-03T06:54:26.919Z,64
2023-05-03T06:54:58.725Z,65
2023-05-03T06:55:28.981Z,63
2023-05-03T06:55:59.630Z,63
2023-05-03T06:56:31.392Z,63
2023-05-03T06:57:01.530Z,64
2023-05-03T06:57:33.707Z,64
2023-05-03T06:58:05.077Z,63
2023-05-03T06:58:35.627Z,63
2023-05-03T06:59:07.034Z,62
2023-05-03T06:59:54.889Z,65
2023-05-03T07:00:08.804Z,65
2023-05-03T07:00:41.456Z,63
2023-05-03T07:01:10.057Z,62
2023-05-03T07:01:46.116Z,62
2023-05-03T07:02:13.208Z,64
2023-05-03T07:02:43.587Z,63
2023-05-03T07:03:15.305Z,61
2023-05-03T07:09:41.950Z,59
2023-05-03T07:09:56.846Z,65
2023-05-03T07:11:32.183Z,65
2023-05-03T07:12:02.335Z,65
2023-05-03T07:12:32.156Z,64
2023-05-03T07:13:07.684Z,61
2023-05-03T07:13:34.564Z,62
2023-05-03T07:14:05.064Z,59
2023-05-03T07:14:36.383Z,60
2023-05-03T07:15:08.679Z,61
2023-05-03T07:15:38.121Z,60
2023-05-03T07:16:08.792Z,60
2023-05-03T07:16:42.015Z,64
2023-05-03T07:17:12.515Z,62
2023-05-03T07:17:42.529Z,62
2023-05-03T07:18:13.862Z,62
2023-05-03T07:18:44.609Z,63
2023-05-03T07:19:14.580Z,60
2023-05-03T07:19:45.798Z,63
2023-05-03T07:20:16.978Z,62
2023-05-03T07:20:48.141Z,59
2023-05-03T07:21:18.836Z,61
2023-05-03T07:21:53.802Z,62
2023-05-03T07:22:22.538Z,64
2023-05-03T07:22:52.900Z,63
2023-05-03T07:23:24.527Z,62
2023-05-03T07:23:54.516Z,59
2023-05-03T07:24:25.162Z,60
2023-05-03T07:24:55.933Z,61
2023-05-03T07:25:26.938Z,62
2023-05-03T07:25:59.047Z,61
2023-05-03T07:26:29.104Z,61
2023-05-03T07:27:00.256Z,60
2023-05-03T07:27:32.779Z,60
2023-05-03T07:28:03.395Z,60
2023-05-03T07:28:33.560Z,62
2023-05-03T07:29:08.007Z,64
2023-05-03T07:33:45.426Z,63
2023-05-03T07:34:16.247Z,62
2023-05-03T07:34:58.178Z,61
2023-05-03T07:35:22.480Z,59
2023-05-03T07:35:49.082Z,59
2023-05-03T07:36:20.767Z,58
2023-05-03T07:36:52.344Z,60
2023-05-03T07:37:20.818Z,62
2023-05-03T07:37:50.937Z,61
2023-05-03T07:38:22.152Z,60
2023-05-03T07:38:55.006Z,58
2023-05-03T07:39:24.952Z,60
2023-05-03T07:39:55.591Z,61
2023-05-03T07:40:26.860Z,61
2023-05-03T07:40:56.998Z,59
2023-05-03T07:41:27.720Z,59
2023-05-03T07:41:58.974Z,58
2023-05-03T07:42:30.071Z,59
2023-05-03T07:43:01.633Z,63
2023-05-03T07:43:32.375Z,62
2023-05-03T07:44:04.121Z,60
2023-05-03T07:44:34.826Z,62
2023-05-03T07:45:07.434Z,64
2023-05-03T07:45:36.218Z,59
2023-05-03T07:46:07.116Z,59
2023-05-03T07:46:37.993Z,60
2023-05-03T07:47:08.886Z,61
2023-05-03T07:47:40.497Z,57
2023-05-03T07:48:11.187Z,57
2023-05-03T07:48:42.652Z,59
2023-05-03T07:49:13.789Z,61
2023-05-03T07:49:45.121Z,55
2023-05-03T07:50:16.636Z,60
2023-05-03T07:50:46.567Z,58
2023-05-03T07:51:16.937Z,54
2023-05-03T07:51:47.766Z,57
2023-05-03T07:52:18.718Z,62
2023-05-03T07:52:50.066Z,61
2023-05-03T07:53:38.717Z,59
2023-05-03T07:53:51.895Z,54
2023-05-03T07:54:23.872Z,60
2023-05-03T07:54:55.506Z,58
2023-05-03T07:55:26.288Z,56
2023-05-03T07:55:56.781Z,63
2023-05-03T07:56:26.967Z,58
2023-05-03T07:56:57.939Z,55
2023-05-03T07:57:29.089Z,58
2023-05-03T07:58:00.761Z,59
2023-05-03T07:59:34.151Z,59
2023-05-03T08:00:12.863Z,58
2023-05-03T08:01:03.105Z,55
2023-05-03T08:01:06.853Z,56
2023-05-03T08:01:38.089Z,58
2023-05-03T08:02:27.846Z,56
2023-05-03T08:02:39.145Z,56
2023-05-03T08:03:25.601Z,60
2023-05-03T08:03:41.614Z,58
2023-05-03T08:04:46.287Z,66
2023-05-03T08:06:05.370Z,57
2023-05-03T08:06:26.380Z,62
2023-05-03T08:06:50.435Z,57
2023-05-03T08:07:19.878Z,54
2023-05-03T08:08:00.913Z,58
2023-05-03T08:08:27.475Z,59
2023-05-03T08:08:51.138Z,57
2023-05-03T08:09:26.375Z,59
2023-05-03T08:10:32.565Z,56
2023-05-03T08:10:59.217Z,57
2023-05-03T08:11:47.846Z,56
2023-05-03T08:11:57.473Z,57
2023-05-03T08:12:28.692Z,54
2023-05-03T08:12:58.789Z,56
2023-05-03T08:13:30.188Z,58
2023-05-03T08:14:11.007Z,58
2023-05-03T08:14:34.759Z,59
2023-05-03T08:15:05.618Z,55
2023-05-03T08:15:35.856Z,57
2023-05-03T08:16:06.168Z,56